createdAt,value
2023-09-30T00:01:11.714Z,20797.63
2023-09-30T00:03:40.305Z,20789.50
2023-09-30T00:06:08.617Z,20858.59
2023-09-30T00:08:37.376Z,20876.91
2023-09-30T00:11:07.948Z,20781.38
2023-09-30T00:13:36.257Z,20858.59
2023-09-30T00:16:04.545Z,20799.66
2023-09-30T00:18:34.104Z,20826.09
2023-09-30T00:21:02.257Z,20883.00
2023-09-30T00:23:30.477Z,20826.09
2023-09-30T00:25:58.716Z,20838.28
2023-09-30T00:28:26.875Z,20856.56
2023-09-30T00:30:55.084Z,20852.50
2023-09-30T00:33:24.066Z,20883.00
2023-09-30T00:35:53.589Z,20885.03
2023-09-30T00:38:23.938Z,20909.44
2023-09-30T00:40:52.334Z,20793.56
2023-09-30T00:43:21.481Z,20850.47
2023-09-30T00:45:51.256Z,20783.41
2023-09-30T00:48:19.991Z,20854.53
2023-09-30T00:50:48.475Z,20840.31
2023-09-30T00:53:18.100Z,20878.94
2023-09-30T00:55:46.768Z,20872.84
2023-09-30T00:58:15.344Z,20870.81
2023-09-30T01:00:43.682Z,20876.91
2023-09-30T01:03:13.321Z,20840.31
2023-09-30T01:05:41.700Z,20846.41
2023-09-30T01:08:09.906Z,20799.66
2023-09-30T01:10:39.489Z,20761.03
2023-09-30T01:13:07.605Z,20744.78
2023-09-30T01:15:35.819Z,20720.38
2023-09-30T01:18:07.463Z,20702.09
2023-09-30T01:20:36.034Z,20661.44
2023-09-30T01:23:05.934Z,20667.53
2023-09-30T01:25:34.772Z,20734.59
2023-09-30T01:28:07.700Z,20685.81
2023-09-30T01:30:36.186Z,20647.19
2023-09-30T01:33:04.847Z,20675.66
2023-09-30T01:35:33.048Z,20643.13
2023-09-30T01:38:01.196Z,20620.78
2023-09-30T01:40:30.760Z,20683.78
2023-09-30T01:42:59.066Z,20602.47
2023-09-30T01:45:27.282Z,20695.97
2023-09-30T01:47:55.449Z,20663.47
2023-09-30T01:50:23.685Z,20628.91
2023-09-30T01:52:51.809Z,20659.38
2023-09-30T01:55:20.150Z,20665.50
2023-09-30T01:57:49.716Z,20647.19
2023-09-30T02:00:18.494Z,20622.81
2023-09-30T02:02:47.178Z,20580.13
2023-09-30T02:05:15.498Z,20582.16
2023-09-30T02:07:44.347Z,20541.50
2023-09-30T02:10:12.808Z,20580.13
2023-09-30T02:12:41.075Z,20606.53
2023-09-30T02:15:12.693Z,20592.31
2023-09-30T02:17:40.960Z,20515.06
2023-09-30T02:20:14.377Z,20513.03
2023-09-30T02:22:42.923Z,20531.31
2023-09-30T02:25:13.547Z,20521.16
2023-09-30T02:27:44.048Z,20484.56
2023-09-30T02:30:15.237Z,20537.44
2023-09-30T02:32:47.174Z,20537.44
2023-09-30T02:35:16.429Z,20545.56
2023-09-30T02:37:45.322Z,20551.66
2023-09-30T02:40:16.028Z,20549.63
2023-09-30T02:42:44.342Z,20527.25
2023-09-30T02:45:18.500Z,20565.88
2023-09-30T02:47:46.776Z,20492.72
2023-09-30T02:50:15.152Z,20500.84
2023-09-30T02:52:43.577Z,20482.53
2023-09-30T02:55:13.389Z,20488.63
2023-09-30T02:57:41.802Z,20474.41
2023-09-30T03:00:24.574Z,20462.22
2023-09-30T03:02:54.641Z,20407.34
2023-09-30T03:05:24.347Z,20437.81
2023-09-30T03:07:52.836Z,20401.22
2023-09-30T03:10:24.746Z,20395.13
2023-09-30T03:12:53.421Z,20405.31
2023-09-30T03:15:23.329Z,20370.75
2023-09-30T03:17:53.725Z,20319.94
2023-09-30T03:20:22.820Z,20350.41
2023-09-30T03:22:51.061Z,20348.38
2023-09-30T03:25:21.646Z,20297.56
2023-09-30T03:27:51.133Z,20271.16
2023-09-30T03:30:21.283Z,20240.66
2023-09-30T03:32:51.262Z,20289.44
2023-09-30T03:35:19.651Z,20224.41
2023-09-30T03:37:49.218Z,20246.75
2023-09-30T03:40:20.637Z,20244.72
2023-09-30T03:42:51.505Z,20220.34
2023-09-30T03:45:20.622Z,20210.16
2023-09-30T03:47:51.907Z,20204.06
2023-09-30T03:50:20.140Z,20220.34
2023-09-30T03:52:49.048Z,20228.47
2023-09-30T03:55:21.209Z,20179.69
2023-09-30T03:57:52.367Z,20193.91
2023-09-30T04:00:22.264Z,20228.47
2023-09-30T04:02:55.631Z,20171.56
2023-09-30T04:05:27.817Z,20210.16
2023-09-30T04:07:56.347Z,20181.72
2023-09-30T04:10:24.890Z,20200.00
2023-09-30T04:12:53.683Z,20191.88
2023-09-30T04:15:22.321Z,20218.31
2023-09-30T04:17:52.716Z,20197.97
2023-09-30T04:20:24.635Z,20179.69
2023-09-30T04:22:58.300Z,20193.91
2023-09-30T04:25:28.060Z,20183.75
2023-09-30T04:27:56.621Z,20177.66
2023-09-30T04:30:25.161Z,20195.94
2023-09-30T04:32:55.446Z,20177.66
2023-09-30T04:35:24.091Z,20173.59
2023-09-30T04:37:52.594Z,20155.28
2023-09-30T04:40:22.082Z,20175.63
2023-09-30T04:42:51.110Z,20161.38
2023-09-30T04:45:21.234Z,20179.69
2023-09-30T04:47:51.276Z,20112.59
2023-09-30T04:50:23.258Z,20094.31
2023-09-30T04:52:52.382Z,20094.31
2023-09-30T04:55:21.220Z,20137.00
2023-09-30T04:57:50.314Z,20120.75
2023-09-30T05:00:25.883Z,20086.19
2023-09-30T05:02:54.996Z,20110.56
2023-09-30T05:05:25.025Z,20096.34
2023-09-30T05:07:53.476Z,20112.59
2023-09-30T05:10:21.955Z,20110.56
2023-09-30T05:12:50.117Z,20124.81
2023-09-30T05:15:20.650Z,20147.16
2023-09-30T05:17:50.467Z,20082.13
2023-09-30T05:20:19.629Z,20110.56
2023-09-30T05:22:50.085Z,20120.75
2023-09-30T05:25:19.751Z,20104.47
2023-09-30T05:27:49.952Z,20143.09
2023-09-30T05:30:20.467Z,20118.69
2023-09-30T05:32:49.429Z,20110.56
2023-09-30T05:35:18.528Z,20116.66
2023-09-30T05:37:48.601Z,20139.03
2023-09-30T05:40:24.025Z,20155.28
2023-09-30T05:42:54.333Z,20143.09
2023-09-30T05:45:25.846Z,20153.25
2023-09-30T05:47:55.032Z,20175.63
2023-09-30T05:50:27.534Z,20122.78
2023-09-30T05:52:58.086Z,20137.00
2023-09-30T05:55:27.762Z,20126.84
2023-09-30T05:57:57.100Z,20147.16
2023-09-30T06:00:30.400Z,20106.50
2023-09-30T06:03:00.208Z,20114.63
2023-09-30T06:05:31.522Z,20141.06
2023-09-30T06:08:05.624Z,20120.75
2023-09-30T06:10:33.872Z,20104.47
2023-09-30T06:13:03.345Z,20082.13
2023-09-30T06:15:33.052Z,20118.69
2023-09-30T06:18:01.960Z,20094.31
2023-09-30T06:20:31.988Z,20118.69
2023-09-30T06:23:02.553Z,20114.63
2023-09-30T06:25:31.662Z,20155.28
2023-09-30T06:28:00.014Z,20183.75
2023-09-30T06:30:31.463Z,20228.47
2023-09-30T06:33:01.741Z,20283.34
2023-09-30T06:35:31.340Z,20346.34
2023-09-30T06:38:02.258Z,20334.16
2023-09-30T06:40:30.494Z,20378.88
2023-09-30T06:42:59.052Z,20397.16
2023-09-30T06:45:27.704Z,20374.81
2023-09-30T06:47:56.737Z,20439.84
2023-09-30T06:50:25.060Z,20474.41
2023-09-30T06:52:53.437Z,20500.84
2023-09-30T06:55:23.230Z,20498.81
2023-09-30T06:57:52.156Z,20445.94
2023-09-30T07:00:20.430Z,20439.84
2023-09-30T07:02:48.676Z,20452.06
2023-09-30T07:05:18.760Z,20521.16
2023-09-30T07:07:46.994Z,20508.97
2023-09-30T07:10:15.410Z,20504.91
2023-09-30T07:12:45.106Z,20502.88
2023-09-30T07:15:14.869Z,20488.63
2023-09-30T07:17:45.825Z,20578.09
2023-09-30T07:20:14.400Z,20586.22
2023-09-30T07:22:55.701Z,20523.19
2023-09-30T07:25:27.670Z,20557.75
2023-09-30T07:27:57.215Z,20574.00
2023-09-30T07:30:25.928Z,20576.03
2023-09-30T07:32:54.178Z,20543.53
2023-09-30T07:35:22.537Z,20521.16
2023-09-30T07:37:54.134Z,20622.81
2023-09-30T07:40:23.251Z,20584.19
2023-09-30T07:42:52.507Z,20555.72
2023-09-30T07:45:22.395Z,20616.69
2023-09-30T07:47:52.150Z,20651.25
2023-09-30T07:50:20.437Z,20702.09
2023-09-30T07:52:48.636Z,20746.81
2023-09-30T07:55:16.988Z,20754.94
2023-09-30T07:57:47.464Z,20797.63
2023-09-30T08:00:22.574Z,20801.69
2023-09-30T08:02:52.373Z,20791.53
2023-09-30T08:05:20.740Z,20842.34
2023-09-30T08:07:48.928Z,20767.13
2023-09-30T08:10:18.003Z,20781.38
2023-09-30T08:12:49.697Z,20785.44
2023-09-30T08:15:18.601Z,20773.22
2023-09-30T08:17:46.907Z,20720.38
2023-09-30T08:20:16.535Z,20744.78
2023-09-30T08:22:45.264Z,20740.69
2023-09-30T08:25:13.568Z,20777.28
2023-09-30T08:27:42.799Z,20752.91
2023-09-30T08:30:11.771Z,20795.59
2023-09-30T08:32:40.520Z,20791.53
2023-09-30T08:35:10.913Z,20848.44
2023-09-30T08:37:40.617Z,20826.09
2023-09-30T08:40:10.992Z,20866.75
2023-09-30T08:42:42.459Z,20826.09
2023-09-30T08:45:16.606Z,20858.59
2023-09-30T08:47:45.261Z,20903.34
2023-09-30T08:50:15.047Z,20901.31
2023-09-30T08:52:47.362Z,20868.78
2023-09-30T08:55:15.638Z,20909.44
2023-09-30T08:57:44.863Z,20915.53
2023-09-30T09:00:15.849Z,20972.47
2023-09-30T09:02:45.123Z,20976.53
2023-09-30T09:05:13.540Z,20994.81
2023-09-30T09:07:43.899Z,20984.66
2023-09-30T09:10:15.265Z,21011.09
2023-09-30T09:12:45.415Z,21031.41
2023-09-30T09:15:28.009Z,21116.78
2023-09-30T09:17:56.987Z,21135.09
2023-09-30T09:20:27.081Z,21151.34
2023-09-30T09:22:59.212Z,21167.63
2023-09-30T09:25:29.662Z,21155.44
2023-09-30T09:27:58.101Z,21110.69
2023-09-30T09:30:28.136Z,21092.41
2023-09-30T09:33:04.397Z,21041.56
2023-09-30T09:35:34.690Z,21029.38
2023-09-30T09:38:05.599Z,20998.88
2023-09-30T09:40:37.267Z,21037.50
2023-09-30T09:43:07.226Z,21059.88
2023-09-30T09:45:39.226Z,20990.75
2023-09-30T09:48:08.913Z,20952.13
2023-09-30T09:50:39.295Z,21043.59
2023-09-30T09:53:08.190Z,21120.88
2023-09-30T09:55:40.690Z,21236.75
2023-09-30T09:58:11.752Z,21322.13
2023-09-30T10:00:41.119Z,21368.91
2023-09-30T10:03:09.905Z,21501.06
2023-09-30T10:05:41.287Z,21604.75
2023-09-30T10:08:14.910Z,21582.38
2023-09-30T10:10:46.529Z,21623.06
2023-09-30T10:13:58.114Z,21688.13
2023-09-30T10:16:51.269Z,21551.91
2023-09-30T10:19:23.601Z,21438.03
2023-09-30T10:22:26.751Z,21385.16
2023-09-30T10:24:57.298Z,21314.00
2023-09-30T10:27:38.643Z,21307.91
2023-09-30T10:30:14.548Z,21330.28
2023-09-30T10:33:17.057Z,21242.84
2023-09-30T10:35:50.492Z,21230.66
2023-09-30T10:38:44.763Z,21198.13
2023-09-30T10:41:33.181Z,21187.97
2023-09-30T10:44:35.465Z,21102.56
2023-09-30T10:47:39.542Z,21065.97
2023-09-30T10:50:53.178Z,21163.56
2023-09-30T10:53:21.776Z,21224.56
2023-09-30T10:55:58.516Z,21299.78
2023-09-30T10:58:42.410Z,21375.00
2023-09-30T11:01:12.252Z,21397.38
2023-09-30T11:03:40.724Z,21342.47
2023-09-30T11:06:12.784Z,21379.06
2023-09-30T11:08:47.663Z,21415.66
2023-09-30T11:11:16.461Z,21458.38
2023-09-30T11:13:44.695Z,21419.72
2023-09-30T11:16:14.448Z,21458.38
2023-09-30T11:18:42.628Z,21456.34
2023-09-30T11:21:13.982Z,21462.44
2023-09-30T11:23:44.750Z,21460.41
2023-09-30T11:26:15.080Z,21513.25
2023-09-30T11:28:45.874Z,21450.22
2023-09-30T11:31:17.086Z,21492.94
2023-09-30T11:33:53.994Z,21547.81
2023-09-30T11:36:23.916Z,21545.78
2023-09-30T11:38:54.870Z,21588.50
2023-09-30T11:41:23.461Z,21625.09
2023-09-30T11:44:10.018Z,21547.81
2023-09-30T11:46:56.728Z,21643.38
2023-09-30T11:49:33.171Z,21616.97
2023-09-30T11:52:04.863Z,21637.28
2023-09-30T11:54:34.944Z,21631.19
2023-09-30T11:57:04.432Z,21497.00
2023-09-30T11:59:33.244Z,21533.59
2023-09-30T12:02:14.222Z,21562.06
2023-09-30T12:04:44.761Z,21539.69
2023-09-30T12:07:13.501Z,21549.84
2023-09-30T12:09:42.347Z,21582.38
2023-09-30T12:12:12.832Z,21555.97
2023-09-30T12:14:41.741Z,21600.69
2023-09-30T12:17:13.695Z,21602.72
2023-09-30T12:19:43.693Z,21639.31
2023-09-30T12:22:12.985Z,21684.06
2023-09-30T12:24:41.879Z,21584.44
2023-09-30T12:27:10.293Z,21478.69
2023-09-30T12:29:39.947Z,21564.09
2023-09-30T12:32:10.696Z,21511.22
2023-09-30T12:34:41.520Z,21596.63
2023-09-30T12:37:09.681Z,21698.28
2023-09-30T12:39:38.065Z,21830.47
2023-09-30T12:42:10.179Z,21838.59
2023-09-30T12:44:38.625Z,21830.47
2023-09-30T12:47:07.714Z,21858.94
2023-09-30T12:49:37.880Z,21824.34
2023-09-30T12:52:06.410Z,21785.72
2023-09-30T12:54:35.122Z,21763.34
2023-09-30T12:57:03.423Z,21757.25
2023-09-30T12:59:31.875Z,21763.34
2023-09-30T13:02:00.122Z,21741.00
2023-09-30T13:04:28.524Z,21765.38
2023-09-30T13:06:58.173Z,21702.34
2023-09-30T13:09:26.393Z,21710.50
2023-09-30T13:11:54.518Z,21570.19
2023-09-30T13:14:22.944Z,21657.63
2023-09-30T13:16:51.121Z,21741.00
2023-09-30T13:19:22.390Z,21743.03
2023-09-30T13:21:51.451Z,21858.94
2023-09-30T13:24:21.105Z,21789.78
2023-09-30T13:26:49.503Z,21777.59
2023-09-30T13:29:18.330Z,21773.53
2023-09-30T13:31:47.207Z,21810.13
2023-09-30T13:34:15.719Z,21834.53
2023-09-30T13:36:44.134Z,21806.06
2023-09-30T13:39:14.702Z,21791.81
2023-09-30T13:41:44.206Z,21753.19
2023-09-30T13:44:12.975Z,21692.19
2023-09-30T13:46:41.420Z,21682.03
2023-09-30T13:49:09.827Z,21684.06
2023-09-30T13:51:40.137Z,21700.31
2023-09-30T13:54:09.516Z,21704.38
2023-09-30T13:56:37.992Z,21716.59
2023-09-30T13:59:09.576Z,21745.06
2023-09-30T14:01:42.625Z,21716.59
2023-09-30T14:04:11.308Z,21647.47
2023-09-30T14:06:39.664Z,21675.94
2023-09-30T14:09:18.618Z,21680.00
2023-09-30T14:11:59.728Z,21677.97
2023-09-30T14:14:29.279Z,21629.16
2023-09-30T14:16:57.491Z,21647.47
2023-09-30T14:19:25.930Z,21647.47
2023-09-30T14:21:54.330Z,21736.94
2023-09-30T14:24:22.555Z,21653.56
2023-09-30T14:26:50.677Z,21619.00
2023-09-30T14:29:18.811Z,21639.31
2023-09-30T14:31:48.339Z,21649.50
2023-09-30T14:34:16.501Z,21592.56
2023-09-30T14:36:44.713Z,21606.78
2023-09-30T14:39:15.325Z,21543.75
2023-09-30T14:41:43.956Z,21533.59
2023-09-30T14:44:12.981Z,21560.03
2023-09-30T14:46:41.899Z,21513.25
2023-09-30T14:49:11.596Z,21503.09
2023-09-30T14:51:40.178Z,21480.72
2023-09-30T14:54:08.963Z,21468.53
2023-09-30T14:56:37.722Z,21462.44
2023-09-30T14:59:06.650Z,21425.84
2023-09-30T15:01:35.619Z,21377.03
2023-09-30T15:04:04.040Z,21354.66
2023-09-30T15:06:35.464Z,21360.78
2023-09-30T15:09:05.076Z,21358.75
2023-09-30T15:11:33.217Z,21366.88
2023-09-30T15:14:01.337Z,21314.00
2023-09-30T15:16:29.752Z,21332.31
2023-09-30T15:18:58.120Z,21293.69
2023-09-30T15:21:26.505Z,21285.53
2023-09-30T15:23:56.070Z,21285.53
2023-09-30T15:26:24.299Z,21287.56
2023-09-30T15:28:52.727Z,21250.97
2023-09-30T15:31:21.093Z,21214.38
2023-09-30T15:33:49.299Z,21196.09
2023-09-30T15:36:19.304Z,21240.81
2023-09-30T15:38:48.043Z,21220.47
2023-09-30T15:41:21.803Z,21226.59
2023-09-30T15:43:49.921Z,21220.47
2023-09-30T15:46:18.174Z,21192.03
2023-09-30T15:48:47.215Z,21129.00
2023-09-30T15:51:15.486Z,21092.41
2023-09-30T15:53:43.652Z,21078.16
2023-09-30T15:56:11.781Z,21047.69
2023-09-30T15:58:41.368Z,21027.34
2023-09-30T16:01:13.753Z,21021.25
2023-09-30T16:03:44.097Z,21029.38
2023-09-30T16:06:12.517Z,21029.38
2023-09-30T16:08:41.785Z,21021.25
2023-09-30T16:11:09.958Z,21025.31
2023-09-30T16:13:38.154Z,21037.50
2023-09-30T16:16:08.031Z,21009.03
2023-09-30T16:18:36.441Z,20974.50
2023-09-30T16:21:04.760Z,20970.41
2023-09-30T16:23:32.915Z,20968.38
2023-09-30T16:26:01.071Z,20944.00
2023-09-30T16:28:29.259Z,20941.97
2023-09-30T16:31:00.801Z,20878.94
2023-09-30T16:33:30.441Z,20885.03
2023-09-30T16:35:58.624Z,20895.19
2023-09-30T16:38:26.843Z,20846.41
2023-09-30T16:40:55.511Z,20779.31
2023-09-30T16:43:23.680Z,20807.78
2023-09-30T16:45:52.543Z,20793.56
2023-09-30T16:48:20.873Z,20797.63
2023-09-30T16:50:51.131Z,20750.88
2023-09-30T16:53:21.236Z,20740.69
2023-09-30T16:55:52.701Z,20750.88
2023-09-30T16:58:21.004Z,20700.03
2023-09-30T17:00:49.317Z,20726.47
2023-09-30T17:03:17.529Z,20714.28
2023-09-30T17:05:45.718Z,20712.25
2023-09-30T17:08:15.221Z,20695.97
2023-09-30T17:10:45.301Z,20681.75
2023-09-30T17:13:13.620Z,20677.69
2023-09-30T17:15:44.267Z,20698.00
2023-09-30T17:18:12.484Z,20649.22
2023-09-30T17:20:45.839Z,20655.31
2023-09-30T17:23:16.126Z,20635.00
2023-09-30T17:25:44.858Z,20624.84
2023-09-30T17:28:13.547Z,20630.94
2023-09-30T17:30:42.740Z,20614.66
2023-09-30T17:33:11.595Z,20639.06
2023-09-30T17:35:40.979Z,20647.19
2023-09-30T17:38:09.729Z,20567.91
2023-09-30T17:40:40.255Z,20582.16
2023-09-30T17:43:08.591Z,20592.31
2023-09-30T17:45:36.979Z,20606.53
2023-09-30T17:48:06.615Z,20561.81
2023-09-30T17:50:34.781Z,20574.00
2023-09-30T17:53:02.959Z,20541.50
2023-09-30T17:55:31.166Z,20569.94
2023-09-30T17:58:00.749Z,20500.84
2023-09-30T18:00:29.169Z,20537.44
2023-09-30T18:02:57.533Z,20533.34
2023-09-30T18:05:26.557Z,20500.84
2023-09-30T18:07:55.583Z,20504.91
2023-09-30T18:10:23.765Z,20539.47
2023-09-30T18:12:52.272Z,20508.97
2023-09-30T18:15:21.894Z,20521.16
2023-09-30T18:18:05.289Z,20508.97
2023-09-30T18:20:37.902Z,20500.84
2023-09-30T18:23:06.136Z,20496.78
2023-09-30T18:25:35.344Z,20492.72
2023-09-30T18:28:04.732Z,20488.63
2023-09-30T18:30:34.355Z,20462.22
2023-09-30T18:33:03.979Z,20484.56
2023-09-30T18:35:32.704Z,20441.88
2023-09-30T18:38:00.959Z,20472.38
2023-09-30T18:40:31.546Z,20439.84
2023-09-30T18:42:59.729Z,20443.91
2023-09-30T18:45:27.953Z,20450.03
2023-09-30T18:47:57.725Z,20445.94
2023-09-30T18:50:25.888Z,20445.94
2023-09-30T18:52:56.278Z,20456.13
2023-09-30T18:55:24.553Z,20458.16
2023-09-30T18:57:52.701Z,20429.69
2023-09-30T19:00:21.316Z,20384.97
2023-09-30T19:02:49.632Z,20378.88
2023-09-30T19:05:19.195Z,20421.56
2023-09-30T19:07:47.364Z,20423.59
2023-09-30T19:10:15.672Z,20413.44
2023-09-30T19:12:43.887Z,20417.50
2023-09-30T19:15:12.720Z,20415.47
2023-09-30T19:17:40.948Z,20407.34
2023-09-30T19:20:10.145Z,20389.03
2023-09-30T19:22:39.795Z,20391.06
2023-09-30T19:25:08.925Z,20374.81
2023-09-30T19:27:37.255Z,20344.31
2023-09-30T19:30:06.768Z,20387.00
2023-09-30T19:32:35.591Z,20370.75
2023-09-30T19:35:05.245Z,20372.78
2023-09-30T19:37:33.765Z,20372.78
2023-09-30T19:40:04.717Z,20374.81
2023-09-30T19:42:33.225Z,20382.94
2023-09-30T19:45:01.460Z,20399.19
2023-09-30T19:47:29.741Z,20382.94
2023-09-30T19:49:57.923Z,20352.44
2023-09-30T19:52:29.902Z,20348.38
2023-09-30T19:54:58.302Z,20338.22
2023-09-30T19:57:30.141Z,20336.19
2023-09-30T19:59:58.338Z,20321.97
2023-09-30T20:02:27.589Z,20285.38
2023-09-30T20:04:55.910Z,20305.69
2023-09-30T20:07:24.632Z,20305.69
2023-09-30T20:09:54.114Z,20338.22
2023-09-30T20:12:23.603Z,20279.28
2023-09-30T20:14:53.085Z,20265.03
2023-09-30T20:17:21.257Z,20287.41
2023-09-30T20:19:50.219Z,20299.59
2023-09-30T20:22:18.509Z,20269.13
2023-09-30T20:24:46.848Z,20277.25
2023-09-30T20:27:14.990Z,20289.44
2023-09-30T20:29:43.146Z,20273.19
2023-09-30T20:32:12.804Z,20277.25
2023-09-30T20:34:41.155Z,20265.03
2023-09-30T20:37:09.374Z,20295.53
2023-09-30T20:39:37.915Z,20273.19
2023-09-30T20:42:06.183Z,20269.13
2023-09-30T20:44:35.050Z,20256.91
2023-09-30T20:47:03.719Z,20285.38
2023-09-30T20:49:33.433Z,20230.50
2023-09-30T20:52:01.741Z,20273.19
2023-09-30T20:54:31.438Z,20293.50
2023-09-30T20:57:00.373Z,20269.13
2023-09-30T20:59:29.100Z,20246.75
2023-09-30T21:01:57.376Z,20252.84
2023-09-30T21:04:25.699Z,20271.16
2023-09-30T21:06:55.267Z,20303.66
2023-09-30T21:09:23.468Z,20307.72
2023-09-30T21:11:51.802Z,20321.97
2023-09-30T21:14:20.256Z,20334.16
2023-09-30T21:16:48.457Z,20293.50
2023-09-30T21:19:16.634Z,20281.31
2023-09-30T21:21:44.937Z,20321.97
2023-09-30T21:24:14.865Z,20303.66
2023-09-30T21:26:43.128Z,20326.03
2023-09-30T21:29:11.273Z,20265.03
2023-09-30T21:31:39.608Z,20319.94
2023-09-30T21:34:07.907Z,20309.75
2023-09-30T21:36:36.245Z,20330.09
2023-09-30T21:39:06.528Z,20303.66
2023-09-30T21:41:36.109Z,20326.03
2023-09-30T21:44:04.262Z,20313.84
2023-09-30T21:46:33.704Z,20350.41
2023-09-30T21:49:02.195Z,20252.84
2023-09-30T21:51:30.457Z,20297.56
2023-09-30T21:53:58.712Z,20267.09
2023-09-30T21:56:26.889Z,20289.44
2023-09-30T21:58:56.380Z,20285.38
2023-09-30T22:01:25.559Z,20269.13
2023-09-30T22:03:55.058Z,20301.63
2023-09-30T22:06:23.407Z,20287.41
2023-09-30T22:08:51.586Z,20291.47
2023-09-30T22:11:19.734Z,20330.09
2023-09-30T22:13:47.975Z,20319.94
2023-09-30T22:16:17.630Z,20307.72
2023-09-30T22:18:46.698Z,20342.28
2023-09-30T22:21:17.844Z,20321.97
2023-09-30T22:23:46.372Z,20295.53
2023-09-30T22:26:14.513Z,20328.06
2023-09-30T22:28:42.659Z,20354.47
2023-09-30T22:31:11.112Z,20317.91
2023-09-30T22:33:41.890Z,20324.00
2023-09-30T22:36:10.193Z,20354.47
2023-09-30T22:38:38.434Z,20330.09
2023-09-30T22:41:08.574Z,20317.91
2023-09-30T22:43:36.893Z,20297.56
2023-09-30T22:46:05.828Z,20309.75
2023-09-30T22:48:34.215Z,20321.97
2023-09-30T22:51:03.825Z,20301.63
2023-09-30T22:53:32.109Z,20301.63
2023-09-30T22:56:00.263Z,20364.66
2023-09-30T22:58:31.025Z,20352.44
2023-09-30T23:00:59.158Z,20330.09
2023-09-30T23:03:28.123Z,20332.13
2023-09-30T23:05:56.832Z,20350.41
2023-09-30T23:08:26.333Z,20330.09
2023-09-30T23:10:54.489Z,20303.66
2023-09-30T23:13:22.631Z,20285.38
2023-09-30T23:15:50.805Z,20319.94
2023-09-30T23:18:19.045Z,20295.53
2023-09-30T23:20:47.229Z,20321.97
2023-09-30T23:23:15.372Z,20342.28
2023-09-30T23:25:45.109Z,20338.22
2023-09-30T23:28:13.345Z,20317.91
2023-09-30T23:30:41.659Z,20307.72
2023-09-30T23:33:10.883Z,20295.53
2023-09-30T23:35:39.378Z,20326.03
2023-09-30T23:38:08.960Z,20368.72
2023-09-30T23:40:39.182Z,20334.16
2023-09-30T23:43:09.661Z,20338.22
2023-09-30T23:45:38.938Z,20332.13
2023-09-30T23:48:09.602Z,20307.72
2023-09-30T23:50:41.713Z,20271.16
2023-09-30T23:53:10.201Z,20287.41
2023-09-30T23:55:39.379Z,20248.78
2023-09-30T23:58:11.248Z,20291.47
